createdAt,value
2023-01-08T00:01:13.202Z,36.33
2023-01-08T00:03:40.238Z,39.83
2023-01-08T00:06:13.553Z,45.33
2023-01-08T00:08:40.392Z,45.63
2023-01-08T00:11:07.303Z,47.38
2023-01-08T00:13:34.556Z,46.42
2023-01-08T00:16:10.241Z,46.38
2023-01-08T00:18:37.507Z,92.40
2023-01-08T00:21:05.319Z,75.40
2023-01-08T00:23:32.700Z,101.25
2023-01-08T00:26:04.070Z,77.75
2023-01-08T00:28:31.125Z,44.83
2023-01-08T00:30:58.162Z,43.95
2023-01-08T00:33:25.403Z,45.42
2023-01-08T00:35:52.236Z,97.35
2023-01-08T00:38:19.073Z,48.28
2023-01-08T00:40:48.068Z,50.25
2023-01-08T00:43:14.793Z,54.63
2023-01-08T00:45:42.597Z,54.78
2023-01-08T00:48:10.411Z,55.15
2023-01-08T00:50:37.373Z,95.60
2023-01-08T00:53:04.355Z,60.22
2023-01-08T00:55:31.173Z,86.47
2023-01-08T00:57:58.320Z,62.75
2023-01-08T01:00:25.621Z,120.90
2023-01-08T01:02:52.511Z,162.07
2023-01-08T01:05:19.426Z,66.68
2023-01-08T01:07:46.623Z,83.53
2023-01-08T01:10:16.287Z,79.35
2023-01-08T01:12:43.849Z,55.75
2023-01-08T01:15:14.249Z,61.45
2023-01-08T01:17:43.005Z,47.35
2023-01-08T01:20:11.916Z,51.28
2023-01-08T01:22:38.859Z,48.10
2023-01-08T01:25:06.338Z,49.80
2023-01-08T01:27:33.201Z,61.97
2023-01-08T01:30:00.093Z,55.13
2023-01-08T01:32:26.981Z,76.72
2023-01-08T01:34:53.741Z,107.13
2023-01-08T01:37:20.563Z,52.60
2023-01-08T01:39:47.402Z,70.18
2023-01-08T01:42:35.646Z,65.55
2023-01-08T01:45:18.169Z,58.22
2023-01-08T01:47:48.645Z,78.53
2023-01-08T01:50:20.395Z,61.33
2023-01-08T01:55:27.853Z,54.58
2023-01-08T01:58:24.177Z,52.85
2023-01-08T02:00:53.347Z,46.63
2023-01-08T02:03:25.783Z,56.95
2023-01-08T02:06:30.029Z,48.22
2023-01-08T02:09:06.057Z,51.22
2023-01-08T02:11:40.813Z,54.95
2023-01-08T02:14:22.941Z,56.10
2023-01-08T02:17:06.670Z,58.30
2023-01-08T02:19:52.573Z,55.85
2023-01-08T02:22:34.259Z,52.20
2023-01-08T02:25:34.696Z,196.65
2023-01-08T02:28:02.968Z,136.57
2023-01-08T02:30:30.516Z,165.00
2023-01-08T02:32:57.319Z,170.57
2023-01-08T02:35:24.108Z,107.35
2023-01-08T02:37:50.904Z,55.25
2023-01-08T02:41:02.706Z,52.72
2023-01-08T02:43:51.457Z,49.83
2023-01-08T02:46:23.518Z,48.08
2023-01-08T02:48:54.889Z,61.92
2023-01-08T02:51:31.276Z,81.95
2023-01-08T02:54:06.954Z,53.17
2023-01-08T02:56:38.940Z,52.30
2023-01-08T02:59:08.190Z,57.70
2023-01-08T03:01:36.044Z,55.65
2023-01-08T03:04:09.967Z,57.70
2023-01-08T03:06:38.340Z,56.75
2023-01-08T03:09:06.281Z,51.92
2023-01-08T03:11:39.561Z,54.80
2023-01-08T03:14:21.728Z,59.75
2023-01-08T03:16:55.982Z,48.80
2023-01-08T03:19:31.301Z,43.75
2023-01-08T03:21:59.887Z,49.42
2023-01-08T03:24:30.014Z,57.65
2023-01-08T03:27:00.894Z,55.28
2023-01-08T03:29:28.687Z,54.97
2023-01-08T03:32:02.245Z,49.83
2023-01-08T03:34:32.273Z,42.47
2023-01-08T03:37:02.994Z,53.15
2023-01-08T03:39:37.629Z,43.78
2023-01-08T03:42:07.927Z,47.47
2023-01-08T03:44:34.729Z,44.58
2023-01-08T03:47:03.280Z,49.80
2023-01-08T03:49:31.253Z,46.22
2023-01-08T03:51:57.996Z,51.20
2023-01-08T03:54:29.881Z,45.13
2023-01-08T03:56:56.667Z,36.10
2023-01-08T03:59:23.804Z,43.10
2023-01-08T04:01:50.765Z,42.50
2023-01-08T04:04:18.176Z,41.67
2023-01-08T04:06:44.952Z,39.53
2023-01-08T04:09:11.748Z,50.05
2023-01-08T04:11:38.531Z,40.03
2023-01-08T04:14:05.318Z,38.25
2023-01-08T04:16:32.156Z,45.78
2023-01-08T04:18:58.921Z,35.55
2023-01-08T04:21:25.707Z,34.53
2023-01-08T04:23:52.469Z,39.95
2023-01-08T04:26:19.213Z,35.03
2023-01-08T04:28:45.990Z,35.72
2023-01-08T04:31:12.897Z,35.20
2023-01-08T04:33:39.844Z,33.80
2023-01-08T04:36:06.742Z,36.28
2023-01-08T04:38:33.553Z,35.78
2023-01-08T04:41:01.583Z,37.17
2023-01-08T04:43:29.556Z,32.50
2023-01-08T04:46:04.213Z,37.80
2023-01-08T04:48:31.293Z,31.42
2023-01-08T04:50:59.185Z,38.28
2023-01-08T04:53:26.552Z,34.95
2023-01-08T04:55:53.304Z,38.55
2023-01-08T04:58:20.317Z,32.85
2023-01-08T05:00:47.480Z,34.92
2023-01-08T05:03:14.936Z,31.42
2023-01-08T05:05:41.774Z,37.35
2023-01-08T05:08:08.534Z,38.55
2023-01-08T05:10:35.283Z,36.97
2023-01-08T05:13:02.596Z,36.45
2023-01-08T05:15:29.447Z,38.80
2023-01-08T05:18:03.926Z,73.20
2023-01-08T05:20:32.264Z,56.05
2023-01-08T05:22:59.216Z,60.47
2023-01-08T05:25:25.976Z,143.38
2023-01-08T05:27:53.528Z,60.13
2023-01-08T05:30:20.315Z,73.03
2023-01-08T05:32:47.107Z,44.53
2023-01-08T05:35:14.052Z,46.60
2023-01-08T05:37:40.903Z,47.95
2023-01-08T05:40:08.268Z,55.10
2023-01-08T05:42:36.184Z,64.30
2023-01-08T05:45:05.062Z,59.50
2023-01-08T05:47:32.977Z,41.92
2023-01-08T05:49:59.883Z,41.70
2023-01-08T05:52:26.932Z,41.30
2023-01-08T05:54:53.718Z,46.65
2023-01-08T05:57:20.554Z,41.70
2023-01-08T05:59:47.384Z,35.83
2023-01-08T06:02:14.206Z,35.92
2023-01-08T06:04:41.135Z,35.03
2023-01-08T06:07:08.033Z,38.60
2023-01-08T06:09:34.781Z,45.67
2023-01-08T06:12:01.528Z,83.05
2023-01-08T06:14:28.392Z,53.75
2023-01-08T06:16:55.160Z,42.15
2023-01-08T06:19:22.683Z,34.38
2023-01-08T06:21:49.523Z,37.15
2023-01-08T06:24:16.273Z,35.55
2023-01-08T06:26:43.146Z,34.95
2023-01-08T06:29:10.060Z,32.92
2023-01-08T06:31:36.866Z,31.88
2023-01-08T06:34:03.731Z,36.97
2023-01-08T06:36:30.584Z,35.17
2023-01-08T06:38:57.328Z,37.80
2023-01-08T06:41:24.252Z,37.55
2023-01-08T06:43:51.075Z,35.95
2023-01-08T06:46:18.260Z,31.92
2023-01-08T06:48:45.227Z,32.42
2023-01-08T06:51:12.036Z,37.17
2023-01-08T06:53:38.826Z,34.70
2023-01-08T06:56:07.564Z,37.90
2023-01-08T06:58:34.332Z,37.08
2023-01-08T07:01:01.146Z,33.53
2023-01-08T07:03:28.052Z,43.17
2023-01-08T07:05:56.155Z,50.85
2023-01-08T07:08:23.294Z,51.30
2023-01-08T07:10:50.253Z,35.63
2023-01-08T07:13:17.007Z,34.97
2023-01-08T07:15:44.088Z,38.95
2023-01-08T07:18:12.101Z,43.53
2023-01-08T07:20:39.771Z,39.72
2023-01-08T07:23:10.260Z,32.78
2023-01-08T07:25:37.048Z,35.67
2023-01-08T07:28:03.841Z,38.42
2023-01-08T07:30:30.978Z,37.95
2023-01-08T07:33:01.843Z,31.80
2023-01-08T07:35:29.312Z,31.83
2023-01-08T07:37:56.396Z,34.25
2023-01-08T07:40:23.244Z,33.33
2023-01-08T07:43:01.389Z,33.00
2023-01-08T07:45:29.749Z,25.88
2023-01-08T07:48:00.547Z,34.10
2023-01-08T07:50:27.769Z,41.80
2023-01-08T07:53:00.869Z,32.20
2023-01-08T07:55:29.076Z,38.63
2023-01-08T07:57:55.896Z,39.53
2023-01-08T08:00:22.880Z,37.45
2023-01-08T08:02:49.821Z,36.75
2023-01-08T08:05:17.881Z,39.83
2023-01-08T08:07:44.930Z,37.10
2023-01-08T08:10:12.074Z,29.95
2023-01-08T08:12:38.853Z,34.53
2023-01-08T08:15:06.303Z,34.15
2023-01-08T08:17:33.100Z,34.05
2023-01-08T08:19:59.814Z,39.22
2023-01-08T08:22:27.199Z,33.42
2023-01-08T08:24:53.963Z,32.17
2023-01-08T08:27:20.786Z,33.80
2023-01-08T08:29:47.562Z,33.08
2023-01-08T08:32:14.298Z,34.90
2023-01-08T08:34:41.055Z,36.53
2023-01-08T08:37:09.002Z,37.45
2023-01-08T08:39:36.673Z,35.85
2023-01-08T08:42:03.464Z,40.00
2023-01-08T08:44:30.205Z,36.97
2023-01-08T08:46:57.086Z,39.25
2023-01-08T08:49:23.941Z,37.90
2023-01-08T08:51:50.715Z,44.97
2023-01-08T08:54:17.481Z,37.15
2023-01-08T08:56:44.224Z,40.10
2023-01-08T08:59:13.264Z,44.05
2023-01-08T09:01:40.159Z,43.25
2023-01-08T09:04:07.019Z,47.05
2023-01-08T09:06:33.798Z,68.22
2023-01-08T09:09:00.547Z,47.45
2023-01-08T09:11:27.423Z,74.65
2023-01-08T09:13:54.208Z,55.60
2023-01-08T09:16:21.043Z,50.63
2023-01-08T09:18:49.105Z,56.20
2023-01-08T09:21:16.093Z,42.78
2023-01-08T09:23:42.874Z,46.15
2023-01-08T09:26:09.710Z,43.83
2023-01-08T09:28:36.491Z,49.15
2023-01-08T09:31:03.891Z,49.22
2023-01-08T09:33:31.201Z,47.75
2023-01-08T09:35:57.985Z,48.28
2023-01-08T09:38:24.728Z,45.17
2023-01-08T09:40:59.956Z,43.60
2023-01-08T09:43:29.926Z,39.72
2023-01-08T09:45:59.786Z,40.70
2023-01-08T09:48:29.626Z,33.72
2023-01-08T09:50:56.831Z,35.53
2023-01-08T09:53:24.375Z,36.63
2023-01-08T09:56:11.088Z,36.42
2023-01-08T09:58:50.464Z,43.42
2023-01-08T10:01:21.142Z,43.97
2023-01-08T10:03:53.785Z,40.28
2023-01-08T10:06:20.548Z,36.65
2023-01-08T10:08:47.459Z,37.03
2023-01-08T10:11:15.658Z,39.00
2023-01-08T10:13:49.841Z,38.45
2023-01-08T10:16:27.463Z,32.97
2023-01-08T10:18:54.647Z,27.30
2023-01-08T10:21:24.427Z,30.23
2023-01-08T10:23:53.285Z,28.42
2023-01-08T10:26:38.045Z,29.10
2023-01-08T10:29:13.921Z,28.77
2023-01-08T10:31:48.608Z,26.90
2023-01-08T10:34:26.804Z,26.05
2023-01-08T10:36:55.142Z,26.85
2023-01-08T10:39:26.853Z,24.02
2023-01-08T10:44:24.306Z,20.90
2023-01-08T10:46:55.801Z,22.73
2023-01-08T10:49:41.783Z,20.63
2023-01-08T10:52:29.292Z,26.95
2023-01-08T10:54:56.496Z,22.95
2023-01-08T10:57:29.285Z,25.15
2023-01-08T10:59:56.986Z,21.77
2023-01-08T11:02:39.174Z,22.85
2023-01-08T11:05:10.330Z,24.13
2023-01-08T11:07:37.681Z,21.58
2023-01-08T11:10:05.223Z,25.20
2023-01-08T11:12:36.806Z,18.33
2023-01-08T11:15:26.124Z,19.88
2023-01-08T11:17:52.949Z,19.63
2023-01-08T11:20:30.882Z,22.73
2023-01-08T11:23:13.688Z,21.33
2023-01-08T11:25:42.549Z,21.73
2023-01-08T11:28:15.603Z,20.05
2023-01-08T11:30:48.066Z,14.65
2023-01-08T11:33:21.124Z,17.38
2023-01-08T11:35:53.136Z,18.85
2023-01-08T11:38:19.893Z,17.45
2023-01-08T11:41:16.263Z,18.88
2023-01-08T11:44:20.579Z,23.33
2023-01-08T11:47:02.752Z,20.95
2023-01-08T11:49:46.421Z,17.98
2023-01-08T11:52:28.167Z,19.55
2023-01-08T11:54:57.947Z,18.10
2023-01-08T11:57:44.855Z,18.52
2023-01-08T12:00:16.499Z,18.38
2023-01-08T12:03:08.194Z,18.83
2023-01-08T12:05:48.545Z,18.85
2023-01-08T12:08:24.413Z,17.88
2023-01-08T12:11:10.318Z,34.83
2023-01-08T12:14:02.662Z,23.50
2023-01-08T12:16:41.127Z,15.02
2023-01-08T12:19:16.780Z,17.85
2023-01-08T12:21:55.467Z,17.85
2023-01-08T12:24:52.787Z,13.52
2023-01-08T12:27:29.834Z,16.80
2023-01-08T12:30:17.382Z,15.63
2023-01-08T12:32:48.059Z,18.95
2023-01-08T12:35:20.303Z,17.85
2023-01-08T12:38:03.560Z,14.85
2023-01-08T12:40:45.160Z,14.93
2023-01-08T12:43:21.353Z,15.55
2023-01-08T12:45:53.408Z,12.15
2023-01-08T12:48:30.063Z,11.88
2023-01-08T12:51:18.393Z,10.98
2023-01-08T12:54:12.932Z,14.75
2023-01-08T12:56:45.759Z,13.65
2023-01-08T12:59:47.997Z,10.75
2023-01-08T13:05:29.509Z,11.30
2023-01-08T13:08:03.175Z,12.25
2023-01-08T13:10:37.823Z,11.52
2023-01-08T13:13:06.696Z,10.52
2023-01-08T13:15:35.082Z,9.82
2023-01-08T13:18:28.179Z,11.98
2023-01-08T13:21:00.424Z,11.30
2023-01-08T13:23:30.463Z,10.55
2023-01-08T13:26:01.885Z,10.55
2023-01-08T13:28:41.284Z,14.48
2023-01-08T13:31:09.183Z,10.27
2023-01-08T13:33:36.038Z,10.50
2023-01-08T13:36:25.848Z,9.95
2023-01-08T13:39:10.732Z,10.25
2023-01-08T13:41:59.367Z,9.43
2023-01-08T13:44:48.705Z,11.30
2023-01-08T13:47:37.060Z,8.82
2023-01-08T13:50:20.894Z,8.70
2023-01-08T13:52:50.143Z,9.32
2023-01-08T13:55:38.933Z,12.55
2023-01-08T13:58:23.877Z,9.38
2023-01-08T14:00:53.762Z,9.85
2023-01-08T14:03:27.611Z,11.77
2023-01-08T14:06:13.602Z,11.65
2023-01-08T14:09:01.167Z,10.68
2023-01-08T14:11:29.538Z,11.00
2023-01-08T14:13:57.417Z,7.55
2023-01-08T14:16:24.505Z,9.85
2023-01-08T14:18:51.891Z,8.15
2023-01-08T14:21:23.184Z,8.57
2023-01-08T14:23:51.750Z,8.77
2023-01-08T14:26:38.958Z,8.25
2023-01-08T14:29:15.280Z,10.68
2023-01-08T14:31:56.555Z,8.35
2023-01-08T14:34:26.752Z,9.73
2023-01-08T14:36:55.202Z,6.38
2023-01-08T14:39:39.228Z,8.52
2023-01-08T14:42:37.264Z,10.48
2023-01-08T14:45:14.299Z,8.45
2023-01-08T14:47:45.901Z,11.02
2023-01-08T14:50:25.118Z,9.95
2023-01-08T14:52:54.961Z,9.13
2023-01-08T14:55:22.666Z,12.30
2023-01-08T14:57:53.304Z,13.43
2023-01-08T15:00:26.921Z,21.60
2023-01-08T15:02:54.248Z,18.58
2023-01-08T15:05:25.990Z,28.52
2023-01-08T15:07:59.526Z,10.40
2023-01-08T15:10:41.802Z,8.75
2023-01-08T15:13:25.580Z,9.18
2023-01-08T15:15:59.434Z,12.88
2023-01-08T15:18:26.809Z,13.02
2023-01-08T15:20:54.424Z,14.20
2023-01-08T15:23:27.234Z,15.88
2023-01-08T15:25:56.273Z,13.80
2023-01-08T15:28:23.226Z,12.52
2023-01-08T15:30:50.473Z,9.95
2023-01-08T15:33:20.263Z,12.65
2023-01-08T15:35:47.912Z,14.48
2023-01-08T15:38:15.069Z,9.80
2023-01-08T15:40:42.009Z,11.32
2023-01-08T15:43:13.083Z,9.25
2023-01-08T15:45:45.794Z,12.48
2023-01-08T15:48:12.776Z,7.28
2023-01-08T15:50:42.182Z,10.75
2023-01-08T15:53:24.794Z,10.18
2023-01-08T15:55:51.917Z,10.18
2023-01-08T15:58:18.793Z,12.13
2023-01-08T16:00:46.671Z,9.73
2023-01-08T16:03:14.973Z,10.25
2023-01-08T16:05:42.132Z,8.10
2023-01-08T16:08:11.135Z,11.15
2023-01-08T16:10:38.358Z,12.18
2023-01-08T16:13:05.120Z,11.60
2023-01-08T16:15:32.037Z,13.70
2023-01-08T16:17:59.559Z,11.30
2023-01-08T16:20:26.729Z,12.77
2023-01-08T16:22:54.988Z,11.20
2023-01-08T16:25:21.930Z,12.52
2023-01-08T16:27:48.714Z,11.95
2023-01-08T16:30:16.005Z,9.93
2023-01-08T16:32:43.329Z,12.25
2023-01-08T16:35:11.163Z,14.60
2023-01-08T16:37:39.102Z,11.25
2023-01-08T16:40:09.947Z,10.20
2023-01-08T16:42:37.151Z,10.23
2023-01-08T16:45:04.736Z,9.80
2023-01-08T16:47:31.610Z,10.75
2023-01-08T16:49:58.493Z,12.05
2023-01-08T16:52:25.285Z,11.43
2023-01-08T16:54:52.125Z,16.98
2023-01-08T16:57:18.919Z,10.00
2023-01-08T16:59:45.797Z,10.27
2023-01-08T17:02:12.565Z,10.07
2023-01-08T17:04:39.438Z,10.20
2023-01-08T17:07:06.697Z,9.95
2023-01-08T17:09:33.845Z,10.95
2023-01-08T17:12:00.691Z,14.93
2023-01-08T17:14:27.462Z,13.10
2023-01-08T17:16:54.260Z,12.25
2023-01-08T17:19:21.765Z,9.52
2023-01-08T17:21:50.432Z,11.48
2023-01-08T17:24:17.265Z,11.38
2023-01-08T17:26:44.051Z,11.85
2023-01-08T17:29:10.942Z,14.35
2023-01-08T17:31:40.601Z,12.98
2023-01-08T17:34:11.834Z,14.10
2023-01-08T17:36:38.673Z,14.07
2023-01-08T17:39:05.514Z,12.88
2023-01-08T17:41:53.412Z,14.70
2023-01-08T17:44:20.339Z,16.17
2023-01-08T17:46:47.372Z,18.75
2023-01-08T17:49:15.280Z,14.70
2023-01-08T17:51:43.267Z,26.92
2023-01-08T17:54:12.350Z,17.17
2023-01-08T17:56:39.279Z,13.75
2023-01-08T17:59:07.807Z,17.80
2023-01-08T18:01:36.693Z,16.23
2023-01-08T18:04:03.867Z,18.20
2023-01-08T18:06:30.859Z,17.33
2023-01-08T18:08:57.857Z,17.23
2023-01-08T18:11:25.610Z,16.08
2023-01-08T18:14:00.218Z,17.60
2023-01-08T18:16:28.675Z,25.55
2023-01-08T18:18:59.853Z,18.13
2023-01-08T18:21:28.252Z,22.38
2023-01-08T18:23:55.291Z,19.63
2023-01-08T18:26:23.223Z,16.23
2023-01-08T18:28:52.233Z,14.85
2023-01-08T18:31:19.181Z,26.73
2023-01-08T18:33:48.980Z,19.88
2023-01-08T18:36:15.931Z,13.52
2023-01-08T18:38:43.995Z,10.90
2023-01-08T18:41:33.645Z,15.75
2023-01-08T18:44:01.460Z,14.75
2023-01-08T18:46:28.841Z,9.23
2023-01-08T18:48:55.957Z,11.70
2023-01-08T18:51:23.204Z,11.18
2023-01-08T18:53:50.199Z,9.48
2023-01-08T18:56:23.515Z,9.23
2023-01-08T18:58:50.735Z,11.93
2023-01-08T19:01:17.672Z,8.15
2023-01-08T19:03:44.644Z,10.20
2023-01-08T19:06:13.001Z,11.68
2023-01-08T19:08:40.775Z,8.60
2023-01-08T19:11:08.820Z,7.57
2023-01-08T19:13:35.925Z,8.95
2023-01-08T19:16:07.954Z,11.20
2023-01-08T19:18:35.063Z,11.25
2023-01-08T19:21:01.871Z,9.70
2023-01-08T19:23:29.053Z,8.52
2023-01-08T19:25:55.792Z,8.82
2023-01-08T19:28:22.583Z,9.85
2023-01-08T19:31:00.236Z,6.85
2023-01-08T19:33:27.308Z,9.50
2023-01-08T19:35:54.219Z,7.40
2023-01-08T19:38:21.366Z,9.27
2023-01-08T19:40:48.137Z,7.72
2023-01-08T19:43:33.506Z,8.65
2023-01-08T19:46:06.946Z,9.57
2023-01-08T19:48:34.664Z,9.00
2023-01-08T19:51:10.276Z,12.35
2023-01-08T19:53:37.514Z,9.93
2023-01-08T19:56:09.694Z,9.32
2023-01-08T19:58:36.638Z,10.32
2023-01-08T20:01:15.691Z,9.75
2023-01-08T20:03:43.300Z,8.82
2023-01-08T20:06:17.349Z,10.93
2023-01-08T20:08:46.245Z,7.88
2023-01-08T20:11:14.929Z,8.98
2023-01-08T20:13:42.232Z,10.13
2023-01-08T20:16:12.426Z,9.23
2023-01-08T20:18:39.977Z,9.15
2023-01-08T20:21:12.243Z,9.98
2023-01-08T20:23:39.831Z,9.18
2023-01-08T20:26:08.955Z,11.07
2023-01-08T20:28:37.588Z,8.43
2023-01-08T20:31:06.147Z,8.35
2023-01-08T20:33:33.963Z,7.90
2023-01-08T20:36:01.289Z,9.10
2023-01-08T20:38:28.119Z,7.75
2023-01-08T20:40:54.870Z,11.98
2023-01-08T20:43:21.741Z,10.52
2023-01-08T20:45:48.817Z,8.75
2023-01-08T20:48:15.626Z,9.88
2023-01-08T20:50:46.846Z,7.88
2023-01-08T20:53:14.487Z,8.32
2023-01-08T20:55:41.452Z,8.60
2023-01-08T20:58:08.217Z,10.20
2023-01-08T21:00:34.999Z,6.93
2023-01-08T21:03:02.045Z,8.30
2023-01-08T21:05:30.211Z,8.50
2023-01-08T21:07:57.033Z,6.57
2023-01-08T21:10:23.817Z,7.85
2023-01-08T21:12:50.685Z,10.57
2023-01-08T21:15:17.533Z,9.75
2023-01-08T21:17:44.300Z,7.13
2023-01-08T21:20:11.769Z,8.20
2023-01-08T21:22:38.585Z,7.03
2023-01-08T21:25:06.145Z,10.45
2023-01-08T21:27:33.117Z,9.18
2023-01-08T21:29:59.975Z,7.72
2023-01-08T21:32:26.744Z,7.45
2023-01-08T21:34:53.678Z,13.15
2023-01-08T21:37:20.427Z,9.80
2023-01-08T21:39:48.100Z,9.93
2023-01-08T21:42:33.315Z,7.55
2023-01-08T21:45:18.599Z,6.80
2023-01-08T21:47:45.352Z,8.30
2023-01-08T21:50:12.459Z,10.50
2023-01-08T21:52:57.813Z,7.65
2023-01-08T21:55:24.701Z,7.43
2023-01-08T21:57:51.524Z,10.75
2023-01-08T22:00:18.480Z,8.40
2023-01-08T22:02:46.698Z,10.00
2023-01-08T22:05:13.480Z,12.85
2023-01-08T22:07:40.328Z,11.63
2023-01-08T22:10:08.214Z,8.60
2023-01-08T22:12:34.953Z,9.40
2023-01-08T22:15:01.786Z,9.93
2023-01-08T22:17:30.723Z,9.27
2023-01-08T22:19:58.036Z,7.05
2023-01-08T22:22:24.837Z,10.32
2023-01-08T22:24:52.375Z,11.45
2023-01-08T22:27:19.441Z,9.55
2023-01-08T22:29:47.782Z,10.48
2023-01-08T22:32:14.809Z,10.30
2023-01-08T22:34:41.701Z,11.95
2023-01-08T22:37:08.486Z,10.82
2023-01-08T22:39:35.239Z,9.07
2023-01-08T22:42:02.031Z,10.43
2023-01-08T22:44:28.853Z,10.13
2023-01-08T22:46:56.598Z,10.02
2023-01-08T22:49:23.473Z,12.55
2023-01-08T22:51:50.268Z,12.90
2023-01-08T22:54:18.158Z,12.15
2023-01-08T22:56:44.969Z,9.95
2023-01-08T22:59:11.770Z,13.60
2023-01-08T23:01:38.628Z,14.60
2023-01-08T23:04:06.051Z,16.77
2023-01-08T23:06:33.808Z,12.38
2023-01-08T23:09:00.723Z,9.35
2023-01-08T23:11:27.955Z,11.18
2023-01-08T23:13:55.205Z,11.07
2023-01-08T23:16:24.826Z,12.10
2023-01-08T23:18:52.933Z,13.63
2023-01-08T23:21:21.917Z,11.15
2023-01-08T23:23:49.093Z,10.85
2023-01-08T23:26:24.219Z,13.77
2023-01-08T23:28:52.891Z,8.27
2023-01-08T23:31:22.980Z,12.60
2023-01-08T23:33:49.840Z,12.27
2023-01-08T23:36:21.128Z,15.13
2023-01-08T23:38:50.057Z,12.57
2023-01-08T23:41:17.745Z,12.90
2023-01-08T23:43:46.042Z,12.00
2023-01-08T23:46:13.655Z,15.68
2023-01-08T23:48:40.522Z,13.25
2023-01-08T23:51:07.663Z,11.70
2023-01-08T23:53:34.640Z,14.50
2023-01-08T23:56:01.396Z,10.63
2023-01-08T23:58:28.172Z,10.20
